Weather at Idaho Falls Regional Airport

Public forecast

Using degrees Fahrenheit for public forecast. Weather courtesy of forecast.io.

Current aviation weather report (METAR) for Idaho Falls Regional Airport

2024/06/16 21:53 (retrieved 38 minutes ago)

KIDA 162153Z 22016G26KT 10SM CLR 21/M06 A2988 RMK AO2 PK WND 21026/2149 SLP086 T02061061

Aviation forecast (TAF) for Idaho Falls Regional Airport

2024/06/16 18:24 (retrieved 4 hours ago)

TAF KIDA 161721Z 1618/1718 23010KT P6SM SCT150 FM162000 24014G24KT P6SM SCT150 FM170400 VRB06KT P6SM SCT200 FM171100 21021G31KT P6SM SCT090 BKN120